Selma, Oregon
Current Conditions -  °F | °C
As of 12:56 PM on Friday 19 Dec 2014 (Local Time) from KSXT Reporting Station
Moderate Fog Moderate Fog  
Wind Chill: 29°   Ceiling: 200
Heat Index: 37°   Visibility: 0mi
Dew Point: 37°   Wind: 12mph
Humidity: 100%   Direction: 170°S
Pressure: 30.01"   Gusts: NA
Location:  42.28°N, 123.62°W
Report Text: KSXT 192056Z AUTO 17010KT M1/4SM FG VV002 03/03 A3001 RMK AO2 UPB22E31 SLP175 P0001 60001 T00280028 50002
Loading
Personal Weather Stations






























Interactive Weather Map New forecast layout! Learn more

10-Day Weather Forecast

Advertisements
Track Severe Weather on mobile